Aviation Digital Data Service (ADDS)

Output produced by METARs form (0909 UTC 23 July 2019)
found at http://www.aviationweather.gov/metar/data/
 
METAR text: UKOO 230900Z 36004MPS 320V060 CAVOK 28/12 Q1014 R34/090060 NOSIG
Conditions at: UKOO (ODESSA/TSENTRALN, UA) observed 0900 UTC 23 July 2019
Temperature: 28.0°C (82°F)
Dewpoint: 12.0°C (54°F) [RH = 37%]
Pressure (altimeter): 29.94 inches Hg (1014.0 mb)
Winds: from the N (360 degrees) at 9 MPH (8 knots; 4.1 m/s)
Visibility: 6 or more miles (10+ km)
Ceiling: ceiling and visibility are OK
Clouds: unknown
Weather: no significant weather observed at this time

METAR text: UKOO 230830Z 02005MPS 330V050 CAVOK 27/13 Q1014 R34/090060 NOSIG
Conditions at: UKOO (ODESSA/TSENTRALN, UA) observed 0830 UTC 23 July 2019
Temperature: 27.0°C (81°F)
Dewpoint: 13.0°C (55°F) [RH = 42%]
Pressure (altimeter): 29.94 inches Hg (1014.0 mb)
Winds: from the NNE (20 degrees) at 12 MPH (10 knots; 5.1 m/s)
Visibility: 6 or more miles (10+ km)
Ceiling: ceiling and visibility are OK
Clouds: unknown
Weather: no significant weather observed at this time

METAR text: UKOO 230800Z 03004MPS 340V080 CAVOK 26/14 Q1014 R34/090060 NOSIG
Conditions at: UKOO (ODESSA/TSENTRALN, UA) observed 0800 UTC 23 July 2019
Temperature: 26.0°C (79°F)
Dewpoint: 14.0°C (57°F) [RH = 48%]
Pressure (altimeter): 29.94 inches Hg (1014.0 mb)
Winds: from the NNE (30 degrees) at 9 MPH (8 knots; 4.1 m/s)
Visibility: 6 or more miles (10+ km)
Ceiling: ceiling and visibility are OK
Clouds: unknown
Weather: no significant weather observed at this time

METAR text: UKOO 230730Z 04004MPS 360V080 CAVOK 26/15 Q1014 R34/090060 NOSIG
Conditions at: UKOO (ODESSA/TSENTRALN, UA) observed 0730 UTC 23 July 2019
Temperature: 26.0°C (79°F)
Dewpoint: 15.0°C (59°F) [RH = 51%]
Pressure (altimeter): 29.94 inches Hg (1014.0 mb)
Winds: from the NE (40 degrees) at 9 MPH (8 knots; 4.1 m/s)
Visibility: 6 or more miles (10+ km)
Ceiling: ceiling and visibility are OK
Clouds: unknown
Weather: no significant weather observed at this time

METAR text: UKOO 230700Z 03004MPS 350V070 CAVOK 26/14 Q1014 R34/090060 NOSIG
Conditions at: UKOO (ODESSA/TSENTRALN, UA) observed 0700 UTC 23 July 2019
Temperature: 26.0°C (79°F)
Dewpoint: 14.0°C (57°F) [RH = 48%]
Pressure (altimeter): 29.94 inches Hg (1014.0 mb)
Winds: from the NNE (30 degrees) at 9 MPH (8 knots; 4.1 m/s)
Visibility: 6 or more miles (10+ km)
Ceiling: ceiling and visibility are OK
Clouds: unknown
Weather: no significant weather observed at this time

METAR text: UKOO 230630Z 02004MPS 330V050 CAVOK 25/15 Q1014 R34/090060 NOSIG
Conditions at: UKOO (ODESSA/TSENTRALN, UA) observed 0630 UTC 23 July 2019
Temperature: 25.0°C (77°F)
Dewpoint: 15.0°C (59°F) [RH = 54%]
Pressure (altimeter): 29.94 inches Hg (1014.0 mb)
Winds: from the NNE (20 degrees) at 9 MPH (8 knots; 4.1 m/s)
Visibility: 6 or more miles (10+ km)
Ceiling: ceiling and visibility are OK
Clouds: unknown
Weather: no significant weather observed at this time

METAR text: UKOO 230600Z 01004MPS 340V050 CAVOK 24/15 Q1014 R34/090060 NOSIG
Conditions at: UKOO (ODESSA/TSENTRALN, UA) observed 0600 UTC 23 July 2019
Temperature: 24.0°C (75°F)
Dewpoint: 15.0°C (59°F) [RH = 57%]
Pressure (altimeter): 29.94 inches Hg (1014.0 mb)
Winds: from the N (10 degrees) at 9 MPH (8 knots; 4.1 m/s)
Visibility: 6 or more miles (10+ km)
Ceiling: ceiling and visibility are OK
Clouds: unknown
Weather: no significant weather observed at this time

METAR text: UKOO 230530Z 01005MPS 330V040 CAVOK 24/15 Q1014 R34/090060 NOSIG
Conditions at: UKOO (ODESSA/TSENTRALN, UA) observed 0530 UTC 23 July 2019
Temperature: 24.0°C (75°F)
Dewpoint: 15.0°C (59°F) [RH = 57%]
Pressure (altimeter): 29.94 inches Hg (1014.0 mb)
Winds: from the N (10 degrees) at 12 MPH (10 knots; 5.1 m/s)
Visibility: 6 or more miles (10+ km)
Ceiling: ceiling and visibility are OK
Clouds: unknown
Weather: no significant weather observed at this time

METAR text: UKOO 230500Z 01004MPS CAVOK 23/15 Q1015 R34/090060 NOSIG
Conditions at: UKOO (ODESSA/TSENTRALN, UA) observed 0500 UTC 23 July 2019
Temperature: 23.0°C (73°F)
Dewpoint: 15.0°C (59°F) [RH = 61%]
Pressure (altimeter): 29.97 inches Hg (1015.0 mb)
Winds: from the N (10 degrees) at 9 MPH (8 knots; 4.1 m/s)
Visibility: 6 or more miles (10+ km)
Ceiling: ceiling and visibility are OK
Clouds: unknown
Weather: no significant weather observed at this time

METAR text: UKOO 230446Z 36004MPS CAVOK 22/15 Q1015 R34/090060 NOSIG
Conditions at: UKOO (ODESSA/TSENTRALN, UA) observed 0446 UTC 23 July 2019
Temperature: 22.0°C (72°F)
Dewpoint: 15.0°C (59°F) [RH = 65%]
Pressure (altimeter): 29.97 inches Hg (1015.0 mb)
Winds: from the N (360 degrees) at 9 MPH (8 knots; 4.1 m/s)
Visibility: 6 or more miles (10+ km)
Ceiling: ceiling and visibility are OK
Clouds: unknown
Weather: no significant weather observed at this time

METAR text: UKOO 230430Z 36004MPS 9999 FEW///CB 22/15 Q1015 R34/090060 NOSIG
Conditions at: UKOO (ODESSA/TSENTRALN, UA) observed 0430 UTC 23 July 2019
Temperature: 22.0°C (72°F)
Dewpoint: 15.0°C (59°F) [RH = 65%]
Pressure (altimeter): 29.97 inches Hg (1015.0 mb)
Winds: from the N (360 degrees) at 9 MPH (8 knots; 4.1 m/s)
Visibility: 6 or more miles (10+ km)
Ceiling: unknown
Clouds: missing
Weather: no significant weather observed at this time

METAR text: UKOO 230400Z 01004MPS 340V040 9999 FEW///CB 22/15 Q1015 R34/090060 NOSIG
Conditions at: UKOO (ODESSA/TSENTRALN, UA) observed 0400 UTC 23 July 2019
Temperature: 22.0°C (72°F)
Dewpoint: 15.0°C (59°F) [RH = 65%]
Pressure (altimeter): 29.97 inches Hg (1015.0 mb)
Winds: from the N (10 degrees) at 9 MPH (8 knots; 4.1 m/s)
Visibility: 6 or more miles (10+ km)
Ceiling: unknown
Clouds: missing
Weather: no significant weather observed at this time

METAR text: UKOO 230330Z 36005MPS 9999 FEW///CB 22/15 Q1015 R34/090060 NOSIG
Conditions at: UKOO (ODESSA/TSENTRALN, UA) observed 0330 UTC 23 July 2019
Temperature: 22.0°C (72°F)
Dewpoint: 15.0°C (59°F) [RH = 65%]
Pressure (altimeter): 29.97 inches Hg (1015.0 mb)
Winds: from the N (360 degrees) at 12 MPH (10 knots; 5.1 m/s)
Visibility: 6 or more miles (10+ km)
Ceiling: unknown
Clouds: missing
Weather: no significant weather observed at this time

METAR text: UKOO 230300Z 36004MPS 9999 FEW///CB 22/15 Q1014 R34/090060 NOSIG
Conditions at: UKOO (ODESSA/TSENTRALN, UA) observed 0300 UTC 23 July 2019
Temperature: 22.0°C (72°F)
Dewpoint: 15.0°C (59°F) [RH = 65%]
Pressure (altimeter): 29.94 inches Hg (1014.0 mb)
Winds: from the N (360 degrees) at 9 MPH (8 knots; 4.1 m/s)
Visibility: 6 or more miles (10+ km)
Ceiling: unknown
Clouds: missing
Weather: no significant weather observed at this time

METAR text: UKOO 230230Z 36004MPS CAVOK 22/15 Q1014 R34/090060 NOSIG
Conditions at: UKOO (ODESSA/TSENTRALN, UA) observed 0230 UTC 23 July 2019
Temperature: 22.0°C (72°F)
Dewpoint: 15.0°C (59°F) [RH = 65%]
Pressure (altimeter): 29.94 inches Hg (1014.0 mb)
Winds: from the N (360 degrees) at 9 MPH (8 knots; 4.1 m/s)
Visibility: 6 or more miles (10+ km)
Ceiling: ceiling and visibility are OK
Clouds: unknown
Weather: no significant weather observed at this time

METAR text: UKOO 230200Z 36004MPS CAVOK 22/15 Q1014 R34/090060 NOSIG
Conditions at: UKOO (ODESSA/TSENTRALN, UA) observed 0200 UTC 23 July 2019
Temperature: 22.0°C (72°F)
Dewpoint: 15.0°C (59°F) [RH = 65%]
Pressure (altimeter): 29.94 inches Hg (1014.0 mb)
Winds: from the N (360 degrees) at 9 MPH (8 knots; 4.1 m/s)
Visibility: 6 or more miles (10+ km)
Ceiling: ceiling and visibility are OK
Clouds: unknown
Weather: no significant weather observed at this time

METAR text: UKOO 230130Z 01005MPS CAVOK 23/15 Q1014 R34/090060 NOSIG
Conditions at: UKOO (ODESSA/TSENTRALN, UA) observed 0130 UTC 23 July 2019
Temperature: 23.0°C (73°F)
Dewpoint: 15.0°C (59°F) [RH = 61%]
Pressure (altimeter): 29.94 inches Hg (1014.0 mb)
Winds: from the N (10 degrees) at 12 MPH (10 knots; 5.1 m/s)
Visibility: 6 or more miles (10+ km)
Ceiling: ceiling and visibility are OK
Clouds: unknown
Weather: no significant weather observed at this time

METAR text: UKOO 230100Z 36005MPS CAVOK 23/15 Q1014 R34/090060 NOSIG
Conditions at: UKOO (ODESSA/TSENTRALN, UA) observed 0100 UTC 23 July 2019
Temperature: 23.0°C (73°F)
Dewpoint: 15.0°C (59°F) [RH = 61%]
Pressure (altimeter): 29.94 inches Hg (1014.0 mb)
Winds: from the N (360 degrees) at 12 MPH (10 knots; 5.1 m/s)
Visibility: 6 or more miles (10+ km)
Ceiling: ceiling and visibility are OK
Clouds: unknown
Weather: no significant weather observed at this time

METAR text: UKOO 230030Z 35005MPS CAVOK 23/15 Q1015 R34/090060 NOSIG
Conditions at: UKOO (ODESSA/TSENTRALN, UA) observed 0030 UTC 23 July 2019
Temperature: 23.0°C (73°F)
Dewpoint: 15.0°C (59°F) [RH = 61%]
Pressure (altimeter): 29.97 inches Hg (1015.0 mb)
Winds: from the N (350 degrees) at 12 MPH (10 knots; 5.1 m/s)
Visibility: 6 or more miles (10+ km)
Ceiling: ceiling and visibility are OK
Clouds: unknown
Weather: no significant weather observed at this time

METAR text: UKOO 230000Z 35004MPS CAVOK 23/16 Q1015 R34/090060 NOSIG
Conditions at: UKOO (ODESSA/TSENTRALN, UA) observed 0000 UTC 23 July 2019
Temperature: 23.0°C (73°F)
Dewpoint: 16.0°C (61°F) [RH = 65%]
Pressure (altimeter): 29.97 inches Hg (1015.0 mb)
Winds: from the N (350 degrees) at 9 MPH (8 knots; 4.1 m/s)
Visibility: 6 or more miles (10+ km)
Ceiling: ceiling and visibility are OK
Clouds: unknown
Weather: no significant weather observed at this time

METAR text: UKOO 222330Z 36004MPS CAVOK 24/16 Q1015 R34/090060 NOSIG
Conditions at: UKOO (ODESSA/TSENTRALN, UA) observed 2330 UTC 22 July 2019
Temperature: 24.0°C (75°F)
Dewpoint: 16.0°C (61°F) [RH = 61%]
Pressure (altimeter): 29.97 inches Hg (1015.0 mb)
Winds: from the N (360 degrees) at 9 MPH (8 knots; 4.1 m/s)
Visibility: 6 or more miles (10+ km)
Ceiling: ceiling and visibility are OK
Clouds: unknown
Weather: no significant weather observed at this time

METAR text: UKOO 222300Z 36004MPS CAVOK 24/16 Q1015 R34/090060 NOSIG
Conditions at: UKOO (ODESSA/TSENTRALN, UA) observed 2300 UTC 22 July 2019
Temperature: 24.0°C (75°F)
Dewpoint: 16.0°C (61°F) [RH = 61%]
Pressure (altimeter): 29.97 inches Hg (1015.0 mb)
Winds: from the N (360 degrees) at 9 MPH (8 knots; 4.1 m/s)
Visibility: 6 or more miles (10+ km)
Ceiling: ceiling and visibility are OK
Clouds: unknown
Weather: no significant weather observed at this time

METAR text: UKOO 222230Z 36004MPS 330V030 CAVOK 24/15 Q1015 R34/090060 NOSIG
Conditions at: UKOO (ODESSA/TSENTRALN, UA) observed 2230 UTC 22 July 2019
Temperature: 24.0°C (75°F)
Dewpoint: 15.0°C (59°F) [RH = 57%]
Pressure (altimeter): 29.97 inches Hg (1015.0 mb)
Winds: from the N (360 degrees) at 9 MPH (8 knots; 4.1 m/s)
Visibility: 6 or more miles (10+ km)
Ceiling: ceiling and visibility are OK
Clouds: unknown
Weather: no significant weather observed at this time

METAR text: UKOO 222200Z 36005MPS CAVOK 24/15 Q1015 R34/090060 NOSIG
Conditions at: UKOO (ODESSA/TSENTRALN, UA) observed 2200 UTC 22 July 2019
Temperature: 24.0°C (75°F)
Dewpoint: 15.0°C (59°F) [RH = 57%]
Pressure (altimeter): 29.97 inches Hg (1015.0 mb)
Winds: from the N (360 degrees) at 12 MPH (10 knots; 5.1 m/s)
Visibility: 6 or more miles (10+ km)
Ceiling: ceiling and visibility are OK
Clouds: unknown
Weather: no significant weather observed at this time

METAR text: UKOO 222130Z 34004MPS CAVOK 24/15 Q1015 R34/090060 NOSIG
Conditions at: UKOO (ODESSA/TSENTRALN, UA) observed 2130 UTC 22 July 2019
Temperature: 24.0°C (75°F)
Dewpoint: 15.0°C (59°F) [RH = 57%]
Pressure (altimeter): 29.97 inches Hg (1015.0 mb)
Winds: from the NNW (340 degrees) at 9 MPH (8 knots; 4.1 m/s)
Visibility: 6 or more miles (10+ km)
Ceiling: ceiling and visibility are OK
Clouds: unknown
Weather: no significant weather observed at this time

METAR text: UKOO 222100Z 34004MPS CAVOK 23/14 Q1015 R34/090060 NOSIG
Conditions at: UKOO (ODESSA/TSENTRALN, UA) observed 2100 UTC 22 July 2019
Temperature: 23.0°C (73°F)
Dewpoint: 14.0°C (57°F) [RH = 57%]
Pressure (altimeter): 29.97 inches Hg (1015.0 mb)
Winds: from the NNW (340 degrees) at 9 MPH (8 knots; 4.1 m/s)
Visibility: 6 or more miles (10+ km)
Ceiling: ceiling and visibility are OK
Clouds: unknown
Weather: no significant weather observed at this time

METAR text: UKOO 222030Z 33004MPS CAVOK 25/14 Q1015 R34/090060 NOSIG
Conditions at: UKOO (ODESSA/TSENTRALN, UA) observed 2030 UTC 22 July 2019
Temperature: 25.0°C (77°F)
Dewpoint: 14.0°C (57°F) [RH = 50%]
Pressure (altimeter): 29.97 inches Hg (1015.0 mb)
Winds: from the NNW (330 degrees) at 9 MPH (8 knots; 4.1 m/s)
Visibility: 6 or more miles (10+ km)
Ceiling: ceiling and visibility are OK
Clouds: unknown
Weather: no significant weather observed at this time

METAR text: UKOO 222000Z 33003MPS CAVOK 24/14 Q1015 R34/090060 NOSIG
Conditions at: UKOO (ODESSA/TSENTRALN, UA) observed 2000 UTC 22 July 2019
Temperature: 24.0°C (75°F)
Dewpoint: 14.0°C (57°F) [RH = 54%]
Pressure (altimeter): 29.97 inches Hg (1015.0 mb)
Winds: from the NNW (330 degrees) at 7 MPH (6 knots; 3.1 m/s)
Visibility: 6 or more miles (10+ km)
Ceiling: ceiling and visibility are OK
Clouds: unknown
Weather: no significant weather observed at this time

METAR text: UKOO 221930Z 32002MPS CAVOK 26/14 Q1015 R16/090060 NOSIG
Conditions at: UKOO (ODESSA/TSENTRALN, UA) observed 1930 UTC 22 July 2019
Temperature: 26.0°C (79°F)
Dewpoint: 14.0°C (57°F) [RH = 48%]
Pressure (altimeter): 29.97 inches Hg (1015.0 mb)
Winds: from the NW (320 degrees) at 5 MPH (4 knots; 2.1 m/s)
Visibility: 6 or more miles (10+ km)
Ceiling: ceiling and visibility are OK
Clouds: unknown
Weather: no significant weather observed at this time

METAR text: UKOO 221900Z 00000MPS CAVOK 26/16 Q1015 R16/090060 NOSIG
Conditions at: UKOO (ODESSA/TSENTRALN, UA) observed 1900 UTC 22 July 2019
Temperature: 26.0°C (79°F)
Dewpoint: 16.0°C (61°F) [RH = 54%]
Pressure (altimeter): 29.97 inches Hg (1015.0 mb)
Winds: calm
Visibility: 6 or more miles (10+ km)
Ceiling: ceiling and visibility are OK
Clouds: unknown
Weather: no significant weather observed at this time

METAR text: UKOO 221830Z VRB01MPS 9999 FEW///CB 25/16 Q1015 R16/090060 NOSIG
Conditions at: UKOO (ODESSA/TSENTRALN, UA) observed 1830 UTC 22 July 2019
Temperature: 25.0°C (77°F)
Dewpoint: 16.0°C (61°F) [RH = 57%]
Pressure (altimeter): 29.97 inches Hg (1015.0 mb)
Winds: variable direction winds at 2 MPH (2 knots; 1.0 m/s)
Visibility: 6 or more miles (10+ km)
Ceiling: unknown
Clouds: missing
Weather: no significant weather observed at this time

METAR text: UKOO 221800Z VRB01MPS 9999 FEW020CB 25/16 Q1015 R16/090060 NOSIG
Conditions at: UKOO (ODESSA/TSENTRALN, UA) observed 1800 UTC 22 July 2019
Temperature: 25.0°C (77°F)
Dewpoint: 16.0°C (61°F) [RH = 57%]
Pressure (altimeter): 29.97 inches Hg (1015.0 mb)
Winds: variable direction winds at 2 MPH (2 knots; 1.0 m/s)
Visibility: 6 or more miles (10+ km)
Ceiling: at least 12,000 feet AGL
Clouds: few clouds at 2000 feet AGL
Weather: no significant weather observed at this time

METAR text: UKOO 221751Z 20003MPS 180V250 9999 FEW020CB 25/16 Q1015 R16/090060 NOSIG
Conditions at: UKOO (ODESSA/TSENTRALN, UA) observed 1751 UTC 22 July 2019
Temperature: 25.0°C (77°F)
Dewpoint: 16.0°C (61°F) [RH = 57%]
Pressure (altimeter): 29.97 inches Hg (1015.0 mb)
Winds: from the SSW (200 degrees) at 7 MPH (6 knots; 3.1 m/s)
Visibility: 6 or more miles (10+ km)
Ceiling: at least 12,000 feet AGL
Clouds: few clouds at 2000 feet AGL
Weather: no significant weather observed at this time

METAR text: UKOO 221730Z 19007MPS 9999 -TSRA FEW009 SCT018CB 24/17 Q1015 R16/090060 NOSIG
Conditions at: UKOO (ODESSA/TSENTRALN, UA) observed 1730 UTC 22 July 2019
Temperature: 24.0°C (75°F)
Dewpoint: 17.0°C (63°F) [RH = 65%]
Pressure (altimeter): 29.97 inches Hg (1015.0 mb)
Winds: from the S (190 degrees) at 16 MPH (14 knots; 7.2 m/s)
Visibility: 6 or more miles (10+ km)
Ceiling: at least 12,000 feet AGL
Clouds: few clouds at 900 feet AGL
scattered clouds at 1800 feet AGL
Weather: -TSRA  (light rain associated with thunderstorm(s))

METAR text: UKOO 221708Z 22004G12MPS 190V270 9999 -TSRA SCT015CB 27/17 Q1015 R16/090060 NOSIG
Conditions at: UKOO (ODESSA/TSENTRALN, UA) observed 1708 UTC 22 July 2019
Temperature: 27.0°C (81°F)
Dewpoint: 17.0°C (63°F) [RH = 54%]
Pressure (altimeter): 29.97 inches Hg (1015.0 mb)
Winds: from the SW (220 degrees) at 9 MPH (8 knots; 4.1 m/s)
gusting to 26 MPH (23 knots; 11.8 m/s)
Visibility: 6 or more miles (10+ km)
Ceiling: at least 12,000 feet AGL
Clouds: scattered clouds at 1500 feet AGL
Weather: -TSRA  (light rain associated with thunderstorm(s))

METAR text: UKOO 221700Z 12001MPS 9999 -TSRA FEW///CB 28/18 Q1015 R16/090060 NOSIG
Conditions at: UKOO (ODESSA/TSENTRALN, UA) observed 1700 UTC 22 July 2019
Temperature: 28.0°C (82°F)
Dewpoint: 18.0°C (64°F) [RH = 55%]
Pressure (altimeter): 29.97 inches Hg (1015.0 mb)
Winds: from the ESE (120 degrees) at 2 MPH (2 knots; 1.0 m/s)
Visibility: 6 or more miles (10+ km)
Ceiling: unknown
Clouds: missing
Weather: -TSRA  (light rain associated with thunderstorm(s))

METAR text: UKOO 221652Z 12003MPS 9999 TS FEW///CB 28/18 Q1015 R16/090060 NOSIG
Conditions at: UKOO (ODESSA/TSENTRALN, UA) observed 1652 UTC 22 July 2019
Temperature: 28.0°C (82°F)
Dewpoint: 18.0°C (64°F) [RH = 55%]
Pressure (altimeter): 29.97 inches Hg (1015.0 mb)
Winds: from the ESE (120 degrees) at 7 MPH (6 knots; 3.1 m/s)
Visibility: 6 or more miles (10+ km)
Ceiling: unknown
Clouds: missing
Weather: TS  (thunderstorm)

METAR text: UKOO 221643Z 15003MPS 120V210 9999 FEW///CB 27/20 Q1015 R16/090060 NOSIG
Conditions at: UKOO (ODESSA/TSENTRALN, UA) observed 1643 UTC 22 July 2019
Temperature: 27.0°C (81°F)
Dewpoint: 20.0°C (68°F) [RH = 66%]
Pressure (altimeter): 29.97 inches Hg (1015.0 mb)
Winds: from the SSE (150 degrees) at 7 MPH (6 knots; 3.1 m/s)
Visibility: 6 or more miles (10+ km)
Ceiling: unknown
Clouds: missing
Weather: no significant weather observed at this time

METAR text: UKOO 221630Z 22003MPS 170V240 9999 VCTS FEW///CB 29/17 Q1015 R16/090060 NOSIG
Conditions at: UKOO (ODESSA/TSENTRALN, UA) observed 1630 UTC 22 July 2019
Temperature: 29.0°C (84°F)
Dewpoint: 17.0°C (63°F) [RH = 48%]
Pressure (altimeter): 29.97 inches Hg (1015.0 mb)
Winds: from the SW (220 degrees) at 7 MPH (6 knots; 3.1 m/s)
Visibility: 6 or more miles (10+ km)
Ceiling: unknown
Clouds: missing
Weather: VCTS  (thunderstorm in vicinity)

METAR text: UKOO 221600Z 13004MPS 9999 VCTS FEW///CB 29/18 Q1015 R16/090060 NOSIG
Conditions at: UKOO (ODESSA/TSENTRALN, UA) observed 1600 UTC 22 July 2019
Temperature: 29.0°C (84°F)
Dewpoint: 18.0°C (64°F) [RH = 52%]
Pressure (altimeter): 29.97 inches Hg (1015.0 mb)
Winds: from the SE (130 degrees) at 9 MPH (8 knots; 4.1 m/s)
Visibility: 6 or more miles (10+ km)
Ceiling: unknown
Clouds: missing
Weather: VCTS  (thunderstorm in vicinity)

METAR text: UKOO 221543Z 10005MPS 070V140 9999 VCTS FEW///CB 28/19 Q1015 R16/090060 NOSIG
Conditions at: UKOO (ODESSA/TSENTRALN, UA) observed 1543 UTC 22 July 2019
Temperature: 28.0°C (82°F)
Dewpoint: 19.0°C (66°F) [RH = 58%]
Pressure (altimeter): 29.97 inches Hg (1015.0 mb)
Winds: from the E (100 degrees) at 12 MPH (10 knots; 5.1 m/s)
Visibility: 6 or more miles (10+ km)
Ceiling: unknown
Clouds: missing
Weather: VCTS  (thunderstorm in vicinity)

METAR text: UKOO 221530Z VRB03MPS 9999 FEW///CB 28/20 Q1014 R16/090060 NOSIG
Conditions at: UKOO (ODESSA/TSENTRALN, UA) observed 1530 UTC 22 July 2019
Temperature: 28.0°C (82°F)
Dewpoint: 20.0°C (68°F) [RH = 62%]
Pressure (altimeter): 29.94 inches Hg (1014.0 mb)
Winds: variable direction winds at 7 MPH (6 knots; 3.1 m/s)
Visibility: 6 or more miles (10+ km)
Ceiling: unknown
Clouds: missing
Weather: no significant weather observed at this time

METAR text: UKOO 221500Z 26004MPS 9999 FEW///CB 31/15 Q1014 R16/090060 NOSIG
Conditions at: UKOO (ODESSA/TSENTRALN, UA) observed 1500 UTC 22 July 2019
Temperature: 31.0°C (88°F)
Dewpoint: 15.0°C (59°F) [RH = 38%]
Pressure (altimeter): 29.94 inches Hg (1014.0 mb)
Winds: from the W (260 degrees) at 9 MPH (8 knots; 4.1 m/s)
Visibility: 6 or more miles (10+ km)
Ceiling: unknown
Clouds: missing
Weather: no significant weather observed at this time

METAR text: UKOO 221430Z 33003MPS 280V010 9999 -SHRA SCT///CB 30/14 Q1014 R16/090060 NOSIG
Conditions at: UKOO (ODESSA/TSENTRALN, UA) observed 1430 UTC 22 July 2019
Temperature: 30.0°C (86°F)
Dewpoint: 14.0°C (57°F) [RH = 38%]
Pressure (altimeter): 29.94 inches Hg (1014.0 mb)
Winds: from the NNW (330 degrees) at 7 MPH (6 knots; 3.1 m/s)
Visibility: 6 or more miles (10+ km)
Ceiling: unknown
Clouds: missing
Weather: -SHRA  (light rain showers)

METAR text: UKOO 221427Z 33003MPS 290V010 9999 SCT///CB 30/14 Q1014 R16/090060 NOSIG
Conditions at: UKOO (ODESSA/TSENTRALN, UA) observed 1427 UTC 22 July 2019
Temperature: 30.0°C (86°F)
Dewpoint: 14.0°C (57°F) [RH = 38%]
Pressure (altimeter): 29.94 inches Hg (1014.0 mb)
Winds: from the NNW (330 degrees) at 7 MPH (6 knots; 3.1 m/s)
Visibility: 6 or more miles (10+ km)
Ceiling: unknown
Clouds: missing
Weather: no significant weather observed at this time

METAR text: UKOO 221400Z 14005MPS 9999 VCTS FEW///CB 29/18 Q1014 R16/090060 NOSIG
Conditions at: UKOO (ODESSA/TSENTRALN, UA) observed 1400 UTC 22 July 2019
Temperature: 29.0°C (84°F)
Dewpoint: 18.0°C (64°F) [RH = 52%]
Pressure (altimeter): 29.94 inches Hg (1014.0 mb)
Winds: from the SE (140 degrees) at 12 MPH (10 knots; 5.1 m/s)
Visibility: 6 or more miles (10+ km)
Ceiling: unknown
Clouds: missing
Weather: VCTS  (thunderstorm in vicinity)

METAR text: UKOO 221350Z 14005MPS 9999 VCTS FEW///CB 28/19 Q1014 R16/090060 NOSIG
Conditions at: UKOO (ODESSA/TSENTRALN, UA) observed 1350 UTC 22 July 2019
Temperature: 28.0°C (82°F)
Dewpoint: 19.0°C (66°F) [RH = 58%]
Pressure (altimeter): 29.94 inches Hg (1014.0 mb)
Winds: from the SE (140 degrees) at 12 MPH (10 knots; 5.1 m/s)
Visibility: 6 or more miles (10+ km)
Ceiling: unknown
Clouds: missing
Weather: VCTS  (thunderstorm in vicinity)

METAR text: UKOO 221330Z 15007MPS 9999 FEW///CB 29/17 Q1014 R34/090060 NOSIG
Conditions at: UKOO (ODESSA/TSENTRALN, UA) observed 1330 UTC 22 July 2019
Temperature: 29.0°C (84°F)
Dewpoint: 17.0°C (63°F) [RH = 48%]
Pressure (altimeter): 29.94 inches Hg (1014.0 mb)
Winds: from the SSE (150 degrees) at 16 MPH (14 knots; 7.2 m/s)
Visibility: 6 or more miles (10+ km)
Ceiling: unknown
Clouds: missing
Weather: no significant weather observed at this time

METAR text: UKOO 221318Z 17005MPS 130V240 9999 FEW///CB 30/17 Q1015 R34/090060 NOSIG
Conditions at: UKOO (ODESSA/TSENTRALN, UA) observed 1318 UTC 22 July 2019
Temperature: 30.0°C (86°F)
Dewpoint: 17.0°C (63°F) [RH = 46%]
Pressure (altimeter): 29.97 inches Hg (1015.0 mb)
Winds: from the S (170 degrees) at 12 MPH (10 knots; 5.1 m/s)
Visibility: 6 or more miles (10+ km)
Ceiling: unknown
Clouds: missing
Weather: no significant weather observed at this time

METAR text: UKOO 221300Z 32005MPS 260V340 9999 FEW///CB 32/12 Q1015 R34/090060 NOSIG
Conditions at: UKOO (ODESSA/TSENTRALN, UA) observed 1300 UTC 22 July 2019
Temperature: 32.0°C (90°F)
Dewpoint: 12.0°C (54°F) [RH = 30%]
Pressure (altimeter): 29.97 inches Hg (1015.0 mb)
Winds: from the NW (320 degrees) at 12 MPH (10 knots; 5.1 m/s)
Visibility: 6 or more miles (10+ km)
Ceiling: unknown
Clouds: missing
Weather: no significant weather observed at this time

METAR text: UKOO 221230Z 32004MPS 280V010 9999 FEW///CB 34/11 Q1015 R34/090060 NOSIG
Conditions at: UKOO (ODESSA/TSENTRALN, UA) observed 1230 UTC 22 July 2019
Temperature: 34.0°C (93°F)
Dewpoint: 11.0°C (52°F) [RH = 25%]
Pressure (altimeter): 29.97 inches Hg (1015.0 mb)
Winds: from the NW (320 degrees) at 9 MPH (8 knots; 4.1 m/s)
Visibility: 6 or more miles (10+ km)
Ceiling: unknown
Clouds: missing
Weather: no significant weather observed at this time

METAR text: UKOO 221200Z 31004MPS 260V350 9999 FEW///CB 34/11 Q1015 R34/090060 NOSIG
Conditions at: UKOO (ODESSA/TSENTRALN, UA) observed 1200 UTC 22 July 2019
Temperature: 34.0°C (93°F)
Dewpoint: 11.0°C (52°F) [RH = 25%]
Pressure (altimeter): 29.97 inches Hg (1015.0 mb)
Winds: from the NW (310 degrees) at 9 MPH (8 knots; 4.1 m/s)
Visibility: 6 or more miles (10+ km)
Ceiling: unknown
Clouds: missing
Weather: no significant weather observed at this time

METAR text: UKOO 221130Z 27003MPS 220V340 9999 SCT///CB 33/11 Q1015 R16/090060 NOSIG
Conditions at: UKOO (ODESSA/TSENTRALN, UA) observed 1130 UTC 22 July 2019
Temperature: 33.0°C (91°F)
Dewpoint: 11.0°C (52°F) [RH = 26%]
Pressure (altimeter): 29.97 inches Hg (1015.0 mb)
Winds: from the W (270 degrees) at 7 MPH (6 knots; 3.1 m/s)
Visibility: 6 or more miles (10+ km)
Ceiling: unknown
Clouds: missing
Weather: no significant weather observed at this time

METAR text: UKOO 221100Z 31004MPS 290V360 9999 SCT///CB 32/15 Q1016 R16/090060 NOSIG
Conditions at: UKOO (ODESSA/TSENTRALN, UA) observed 1100 UTC 22 July 2019
Temperature: 32.0°C (90°F)
Dewpoint: 15.0°C (59°F) [RH = 36%]
Pressure (altimeter): 30.00 inches Hg (1016.0 mb)
Winds: from the NW (310 degrees) at 9 MPH (8 knots; 4.1 m/s)
Visibility: 6 or more miles (10+ km)
Ceiling: unknown
Clouds: missing
Weather: no significant weather observed at this time

METAR text: UKOO 221030Z 28003MPS 250V310 9999 FEW///CB 33/11 Q1016 R16/090060 NOSIG
Conditions at: UKOO (ODESSA/TSENTRALN, UA) observed 1030 UTC 22 July 2019
Temperature: 33.0°C (91°F)
Dewpoint: 11.0°C (52°F) [RH = 26%]
Pressure (altimeter): 30.00 inches Hg (1016.0 mb)
Winds: from the W (280 degrees) at 7 MPH (6 knots; 3.1 m/s)
Visibility: 6 or more miles (10+ km)
Ceiling: unknown
Clouds: missing
Weather: no significant weather observed at this time

METAR text: UKOO 221000Z VRB02MPS 9999 FEW///CB 32/14 Q1016 R16/090060 NOSIG
Conditions at: UKOO (ODESSA/TSENTRALN, UA) observed 1000 UTC 22 July 2019
Temperature: 32.0°C (90°F)
Dewpoint: 14.0°C (57°F) [RH = 34%]
Pressure (altimeter): 30.00 inches Hg (1016.0 mb)
Winds: variable direction winds at 5 MPH (4 knots; 2.1 m/s)
Visibility: 6 or more miles (10+ km)
Ceiling: unknown
Clouds: missing
Weather: no significant weather observed at this time

METAR text: UKOO 220930Z 15005MPS 9999 FEW///CB 29/16 Q1016 R16/090060 NOSIG
Conditions at: UKOO (ODESSA/TSENTRALN, UA) observed 0930 UTC 22 July 2019
Temperature: 29.0°C (84°F)
Dewpoint: 16.0°C (61°F) [RH = 45%]
Pressure (altimeter): 30.00 inches Hg (1016.0 mb)
Winds: from the SSE (150 degrees) at 12 MPH (10 knots; 5.1 m/s)
Visibility: 6 or more miles (10+ km)
Ceiling: unknown
Clouds: missing
Weather: no significant weather observed at this time

METAR text: UKOO 220900Z 16006MPS 9999 FEW///CB 29/15 Q1016 R16/090060 NOSIG
Conditions at: UKOO (ODESSA/TSENTRALN, UA) observed 0900 UTC 22 July 2019
Temperature: 29.0°C (84°F)
Dewpoint: 15.0°C (59°F) [RH = 43%]
Pressure (altimeter): 30.00 inches Hg (1016.0 mb)
Winds: from the SSE (160 degrees) at 14 MPH (12 knots; 6.2 m/s)
Visibility: 6 or more miles (10+ km)
Ceiling: unknown
Clouds: missing
Weather: no significant weather observed at this time

METAR text: UKOO 220853Z 16005MPS 130V240 9999 FEW///CB 29/15 Q1017 R16/090060 NOSIG
Conditions at: UKOO (ODESSA/TSENTRALN, UA) observed 0853 UTC 22 July 2019
Temperature: 29.0°C (84°F)
Dewpoint: 15.0°C (59°F) [RH = 43%]
Pressure (altimeter): 30.03 inches Hg (1017.0 mb)
Winds: from the SSE (160 degrees) at 12 MPH (10 knots; 5.1 m/s)
Visibility: 6 or more miles (10+ km)
Ceiling: unknown
Clouds: missing
Weather: no significant weather observed at this time

METAR text: UKOO 220830Z 22003G08MPS 180V310 9999 FEW///CB 30/16 Q1016 R16/090060 NOSIG
Conditions at: UKOO (ODESSA/TSENTRALN, UA) observed 0830 UTC 22 July 2019
Temperature: 30.0°C (86°F)
Dewpoint: 16.0°C (61°F) [RH = 43%]
Pressure (altimeter): 30.00 inches Hg (1016.0 mb)
Winds: from the SW (220 degrees) at 7 MPH (6 knots; 3.1 m/s)
gusting to 18 MPH (16 knots; 8.2 m/s)
Visibility: 6 or more miles (10+ km)
Ceiling: unknown
Clouds: missing
Weather: no significant weather observed at this time

METAR text: UKOO 220800Z 21002MPS 160V300 CAVOK 31/17 Q1016 R16/090060 NOSIG
Conditions at: UKOO (ODESSA/TSENTRALN, UA) observed 0800 UTC 22 July 2019
Temperature: 31.0°C (88°F)
Dewpoint: 17.0°C (63°F) [RH = 43%]
Pressure (altimeter): 30.00 inches Hg (1016.0 mb)
Winds: from the SSW (210 degrees) at 5 MPH (4 knots; 2.1 m/s)
Visibility: 6 or more miles (10+ km)
Ceiling: ceiling and visibility are OK
Clouds: unknown
Weather: no significant weather observed at this time

METAR text: UKOO 220730Z 20002MPS 150V250 CAVOK 31/15 Q1016 R16/090060 NOSIG
Conditions at: UKOO (ODESSA/TSENTRALN, UA) observed 0730 UTC 22 July 2019
Temperature: 31.0°C (88°F)
Dewpoint: 15.0°C (59°F) [RH = 38%]
Pressure (altimeter): 30.00 inches Hg (1016.0 mb)
Winds: from the SSW (200 degrees) at 5 MPH (4 knots; 2.1 m/s)
Visibility: 6 or more miles (10+ km)
Ceiling: ceiling and visibility are OK
Clouds: unknown
Weather: no significant weather observed at this time

METAR text: UKOO 220700Z 26002MPS 170V320 CAVOK 30/14 Q1017 R16/090060 NOSIG
Conditions at: UKOO (ODESSA/TSENTRALN, UA) observed 0700 UTC 22 July 2019
Temperature: 30.0°C (86°F)
Dewpoint: 14.0°C (57°F) [RH = 38%]
Pressure (altimeter): 30.03 inches Hg (1017.0 mb)
Winds: from the W (260 degrees) at 5 MPH (4 knots; 2.1 m/s)
Visibility: 6 or more miles (10+ km)
Ceiling: ceiling and visibility are OK
Clouds: unknown
Weather: no significant weather observed at this time

METAR text: UKOO 220630Z 00000MPS CAVOK 29/15 Q1017 R16/090060 NOSIG
Conditions at: UKOO (ODESSA/TSENTRALN, UA) observed 0630 UTC 22 July 2019
Temperature: 29.0°C (84°F)
Dewpoint: 15.0°C (59°F) [RH = 43%]
Pressure (altimeter): 30.03 inches Hg (1017.0 mb)
Winds: calm
Visibility: 6 or more miles (10+ km)
Ceiling: ceiling and visibility are OK
Clouds: unknown
Weather: no significant weather observed at this time

METAR text: UKOO 220600Z 00000MPS CAVOK 27/17 Q1017 R34/090060 NOSIG
Conditions at: UKOO (ODESSA/TSENTRALN, UA) observed 0600 UTC 22 July 2019
Temperature: 27.0°C (81°F)
Dewpoint: 17.0°C (63°F) [RH = 54%]
Pressure (altimeter): 30.03 inches Hg (1017.0 mb)
Winds: calm
Visibility: 6 or more miles (10+ km)
Ceiling: ceiling and visibility are OK
Clouds: unknown
Weather: no significant weather observed at this time

METAR text: UKOO 220530Z 00000MPS CAVOK 26/17 Q1017 R34/090060 NOSIG
Conditions at: UKOO (ODESSA/TSENTRALN, UA) observed 0530 UTC 22 July 2019
Temperature: 26.0°C (79°F)
Dewpoint: 17.0°C (63°F) [RH = 58%]
Pressure (altimeter): 30.03 inches Hg (1017.0 mb)
Winds: calm
Visibility: 6 or more miles (10+ km)
Ceiling: ceiling and visibility are OK
Clouds: unknown
Weather: no significant weather observed at this time

METAR text: UKOO 220500Z 00000MPS CAVOK 24/18 Q1017 R34/090060 NOSIG
Conditions at: UKOO (ODESSA/TSENTRALN, UA) observed 0500 UTC 22 July 2019
Temperature: 24.0°C (75°F)
Dewpoint: 18.0°C (64°F) [RH = 69%]
Pressure (altimeter): 30.03 inches Hg (1017.0 mb)
Winds: calm
Visibility: 6 or more miles (10+ km)
Ceiling: ceiling and visibility are OK
Clouds: unknown
Weather: no significant weather observed at this time

METAR text: UKOO 220430Z 22001MPS CAVOK 22/18 Q1017 R34/090060 NOSIG
Conditions at: UKOO (ODESSA/TSENTRALN, UA) observed 0430 UTC 22 July 2019
Temperature: 22.0°C (72°F)
Dewpoint: 18.0°C (64°F) [RH = 78%]
Pressure (altimeter): 30.03 inches Hg (1017.0 mb)
Winds: from the SW (220 degrees) at 2 MPH (2 knots; 1.0 m/s)
Visibility: 6 or more miles (10+ km)
Ceiling: ceiling and visibility are OK
Clouds: unknown
Weather: no significant weather observed at this time

METAR text: UKOO 220400Z 00000MPS CAVOK 21/18 Q1017 R34/090060 NOSIG
Conditions at: UKOO (ODESSA/TSENTRALN, UA) observed 0400 UTC 22 July 2019
Temperature: 21.0°C (70°F)
Dewpoint: 18.0°C (64°F) [RH = 83%]
Pressure (altimeter): 30.03 inches Hg (1017.0 mb)
Winds: calm
Visibility: 6 or more miles (10+ km)
Ceiling: ceiling and visibility are OK
Clouds: unknown
Weather: no significant weather observed at this time

METAR text: UKOO 220340Z 00000MPS 5000 DU NSC 20/18 Q1017 R16/090060 NOSIG
Conditions at: UKOO (ODESSA/TSENTRALN, UA) observed 0340 UTC 22 July 2019
Temperature: 20.0°C (68°F)
Dewpoint: 18.0°C (64°F) [RH = 88%]
Pressure (altimeter): 30.03 inches Hg (1017.0 mb)
Winds: calm
Visibility: 3 miles ( 5 km)
Ceiling: at least 12,000 feet AGL
Clouds: sky clear below 12,000 feet AGL
Weather: DU  (widespread dust)

METAR text: UKOO 220330Z 00000MPS 2800 DU NSC 19/18 Q1017 R16/090060 NOSIG
Conditions at: UKOO (ODESSA/TSENTRALN, UA) observed 0330 UTC 22 July 2019
Temperature: 19.0°C (66°F)
Dewpoint: 18.0°C (64°F) [RH = 94%]
Pressure (altimeter): 30.03 inches Hg (1017.0 mb)
Winds: calm
Visibility: 1.74 miles (2.80 km)
Ceiling: at least 12,000 feet AGL
Clouds: sky clear below 12,000 feet AGL
Weather: DU  (widespread dust)

METAR text: UKOO 220300Z 00000MPS CAVOK 19/18 Q1017 R16/090060 NOSIG
Conditions at: UKOO (ODESSA/TSENTRALN, UA) observed 0300 UTC 22 July 2019
Temperature: 19.0°C (66°F)
Dewpoint: 18.0°C (64°F) [RH = 94%]
Pressure (altimeter): 30.03 inches Hg (1017.0 mb)
Winds: calm
Visibility: 6 or more miles (10+ km)
Ceiling: ceiling and visibility are OK
Clouds: unknown
Weather: no significant weather observed at this time

METAR text: UKOO 220230Z 00000MPS CAVOK 20/18 Q1017 R16/090060 NOSIG
Conditions at: UKOO (ODESSA/TSENTRALN, UA) observed 0230 UTC 22 July 2019
Temperature: 20.0°C (68°F)
Dewpoint: 18.0°C (64°F) [RH = 88%]
Pressure (altimeter): 30.03 inches Hg (1017.0 mb)
Winds: calm
Visibility: 6 or more miles (10+ km)
Ceiling: ceiling and visibility are OK
Clouds: unknown
Weather: no significant weather observed at this time

METAR text: UKOO 220200Z 00000MPS CAVOK 19/17 Q1017 R16/090060 NOSIG
Conditions at: UKOO (ODESSA/TSENTRALN, UA) observed 0200 UTC 22 July 2019
Temperature: 19.0°C (66°F)
Dewpoint: 17.0°C (63°F) [RH = 88%]
Pressure (altimeter): 30.03 inches Hg (1017.0 mb)
Winds: calm
Visibility: 6 or more miles (10+ km)
Ceiling: ceiling and visibility are OK
Clouds: unknown
Weather: no significant weather observed at this time

METAR text: UKOO 220130Z 00000MPS CAVOK 20/18 Q1017 R16/090060 NOSIG
Conditions at: UKOO (ODESSA/TSENTRALN, UA) observed 0130 UTC 22 July 2019
Temperature: 20.0°C (68°F)
Dewpoint: 18.0°C (64°F) [RH = 88%]
Pressure (altimeter): 30.03 inches Hg (1017.0 mb)
Winds: calm
Visibility: 6 or more miles (10+ km)
Ceiling: ceiling and visibility are OK
Clouds: unknown
Weather: no significant weather observed at this time

METAR text: UKOO 220100Z 00000MPS CAVOK 20/18 Q1017 R16/090060 NOSIG
Conditions at: UKOO (ODESSA/TSENTRALN, UA) observed 0100 UTC 22 July 2019
Temperature: 20.0°C (68°F)
Dewpoint: 18.0°C (64°F) [RH = 88%]
Pressure (altimeter): 30.03 inches Hg (1017.0 mb)
Winds: calm
Visibility: 6 or more miles (10+ km)
Ceiling: ceiling and visibility are OK
Clouds: unknown
Weather: no significant weather observed at this time

METAR text: UKOO 220030Z 21002MPS CAVOK 20/18 Q1017 R34/090060 NOSIG
Conditions at: UKOO (ODESSA/TSENTRALN, UA) observed 0030 UTC 22 July 2019
Temperature: 20.0°C (68°F)
Dewpoint: 18.0°C (64°F) [RH = 88%]
Pressure (altimeter): 30.03 inches Hg (1017.0 mb)
Winds: from the SSW (210 degrees) at 5 MPH (4 knots; 2.1 m/s)
Visibility: 6 or more miles (10+ km)
Ceiling: ceiling and visibility are OK
Clouds: unknown
Weather: no significant weather observed at this time

METAR text: UKOO 220000Z 23002MPS CAVOK 21/18 Q1017 R34/090060 NOSIG
Conditions at: UKOO (ODESSA/TSENTRALN, UA) observed 0000 UTC 22 July 2019
Temperature: 21.0°C (70°F)
Dewpoint: 18.0°C (64°F) [RH = 83%]
Pressure (altimeter): 30.03 inches Hg (1017.0 mb)
Winds: from the SW (230 degrees) at 5 MPH (4 knots; 2.1 m/s)
Visibility: 6 or more miles (10+ km)
Ceiling: ceiling and visibility are OK
Clouds: unknown
Weather: no significant weather observed at this time

METAR text: UKOO 212330Z 00000MPS CAVOK 21/18 Q1017 R34/090060 NOSIG
Conditions at: UKOO (ODESSA/TSENTRALN, UA) observed 2330 UTC 21 July 2019
Temperature: 21.0°C (70°F)
Dewpoint: 18.0°C (64°F) [RH = 83%]
Pressure (altimeter): 30.03 inches Hg (1017.0 mb)
Winds: calm
Visibility: 6 or more miles (10+ km)
Ceiling: ceiling and visibility are OK
Clouds: unknown
Weather: no significant weather observed at this time

METAR text: UKOO 212300Z 23002MPS CAVOK 21/18 Q1017 R16/090060 NOSIG
Conditions at: UKOO (ODESSA/TSENTRALN, UA) observed 2300 UTC 21 July 2019
Temperature: 21.0°C (70°F)
Dewpoint: 18.0°C (64°F) [RH = 83%]
Pressure (altimeter): 30.03 inches Hg (1017.0 mb)
Winds: from the SW (230 degrees) at 5 MPH (4 knots; 2.1 m/s)
Visibility: 6 or more miles (10+ km)
Ceiling: ceiling and visibility are OK
Clouds: unknown
Weather: no significant weather observed at this time

METAR text: UKOO 212230Z 21001MPS CAVOK 21/19 Q1017 R16/090060 NOSIG
Conditions at: UKOO (ODESSA/TSENTRALN, UA) observed 2230 UTC 21 July 2019
Temperature: 21.0°C (70°F)
Dewpoint: 19.0°C (66°F) [RH = 88%]
Pressure (altimeter): 30.03 inches Hg (1017.0 mb)
Winds: from the SSW (210 degrees) at 2 MPH (2 knots; 1.0 m/s)
Visibility: 6 or more miles (10+ km)
Ceiling: ceiling and visibility are OK
Clouds: unknown
Weather: no significant weather observed at this time

METAR text: UKOO 212200Z 21002MPS CAVOK 21/18 Q1018 R16/090060 NOSIG
Conditions at: UKOO (ODESSA/TSENTRALN, UA) observed 2200 UTC 21 July 2019
Temperature: 21.0°C (70°F)
Dewpoint: 18.0°C (64°F) [RH = 83%]
Pressure (altimeter): 30.06 inches Hg (1018.0 mb)
Winds: from the SSW (210 degrees) at 5 MPH (4 knots; 2.1 m/s)
Visibility: 6 or more miles (10+ km)
Ceiling: ceiling and visibility are OK
Clouds: unknown
Weather: no significant weather observed at this time

METAR text: UKOO 212130Z 22002MPS CAVOK 21/18 Q1018 R16/090060 NOSIG
Conditions at: UKOO (ODESSA/TSENTRALN, UA) observed 2130 UTC 21 July 2019
Temperature: 21.0°C (70°F)
Dewpoint: 18.0°C (64°F) [RH = 83%]
Pressure (altimeter): 30.06 inches Hg (1018.0 mb)
Winds: from the SW (220 degrees) at 5 MPH (4 knots; 2.1 m/s)
Visibility: 6 or more miles (10+ km)
Ceiling: ceiling and visibility are OK
Clouds: unknown
Weather: no significant weather observed at this time

Forecast for: COR
Text: TAF COR UKOO 230505Z 2306/2406 35006G12MPS 6000 BKN010 SCT020CB TX29/2312Z TN19/2402Z
Forecast period: 0600 to 1800 UTC 23 July 2019
Forecast type: FROM: standard forecast or significant change
Winds: from the N (350 degrees) at 14 MPH (12 knots; 6.2 m/s)
gusting to 26 MPH (23 knots; 11.8 m/s)
Visibility: 4 miles (6 km)
Ceiling: 1000 feet AGL
Clouds: broken clouds at 1000 feet AGL
scattered clouds at 2000 feet AGL
Weather: no significant weather forecast for this period
Text: PROB40
Forecast period: 0600 to 1800 UTC 23 July 2019
Forecast type: TEMPORARY: The following changes expected for less than half the time period
Winds: variable direction winds at 20 MPH (17 knots; 8.7 m/s)
gusting to 40 MPH (35 knots; 18.0 m/s)
Visibility: 0.62 miles (1.00 km)
Ceiling: 300 feet AGL
Clouds: broken clouds at 300 feet AGL
broken clouds at 1500 feet AGL
Weather: TSRA TSGR SQ  (rain associated with thunderstorm(s), hail associated with thunderstorm(s), squal)
Text: TEMPO 2306/2318 VRB09G18MPS 1000 TSRAGR SQ BKN003 BKN015CB
Forecast period: 1800 UTC 23 July 2019 to 0600 UTC 24 July 2019
Forecast type: BECOMING: Conditions expected to become as follows by 1900 UTC 23 July 2019
Winds: from the N (350 degrees) at 14 MPH (12 knots; 6.2 m/s)
gusting to 26 MPH (23 knots; 11.8 m/s)
Visibility: 1.30 miles (2.09 km)
Ceiling: 1000 feet AGL
Clouds: broken clouds at 1000 feet AGL
scattered clouds at 2000 feet AGL
Weather: -SHRA BR  (light rain showers, mist)